sensor_id;sensor_type;location;lat;lon;timestamp;pressure;altitude;pressure_sealevel;temperature;humidity
64078;BME280;51039;49.696;10.808;2023-07-30T00:01:34;97824.69;;;17.83;100.00
64078;BME280;51039;49.696;10.808;2023-07-30T00:03:59;97835.13;;;17.80;100.00
64078;BME280;51039;49.696;10.808;2023-07-30T00:06:25;97842.09;;;17.76;100.00
64078;BME280;51039;49.696;10.808;2023-07-30T00:08:50;97838.06;;;17.73;100.00
64078;BME280;51039;49.696;10.808;2023-07-30T00:11:15;97839.13;;;17.72;100.00
64078;BME280;51039;49.696;10.808;2023-07-30T00:13:41;97839.88;;;17.62;100.00
64078;BME280;51039;49.696;10.808;2023-07-30T00:16:06;97847.91;;;17.62;100.00
64078;BME280;51039;49.696;10.808;2023-07-30T00:18:32;97845.25;;;17.62;100.00
64078;BME280;51039;49.696;10.808;2023-07-30T00:20:57;97850.66;;;17.73;100.00
64078;BME280;51039;49.696;10.808;2023-07-30T00:23:22;97845.84;;;17.80;100.00
64078;BME280;51039;49.696;10.808;2023-07-30T00:25:48;97851.00;;;17.87;100.00
64078;BME280;51039;49.696;10.808;2023-07-30T00:28:13;97842.72;;;17.88;100.00
64078;BME280;51039;49.696;10.808;2023-07-30T00:30:38;97841.41;;;17.96;100.00
64078;BME280;51039;49.696;10.808;2023-07-30T00:33:04;97849.44;;;17.96;100.00
64078;BME280;51039;49.696;10.808;2023-07-30T00:35:29;97843.78;;;17.97;100.00
64078;BME280;51039;49.696;10.808;2023-07-30T00:37:54;97845.13;;;17.95;100.00
64078;BME280;51039;49.696;10.808;2023-07-30T00:40:20;97848.59;;;17.95;100.00
64078;BME280;51039;49.696;10.808;2023-07-30T00:42:45;97846.75;;;17.96;100.00
64078;BME280;51039;49.696;10.808;2023-07-30T00:45:10;97849.44;;;18.01;100.00
64078;BME280;51039;49.696;10.808;2023-07-30T00:47:36;97855.06;;;18.04;100.00
64078;BME280;51039;49.696;10.808;2023-07-30T00:50:03;97841.97;;;18.08;100.00
64078;BME280;51039;49.696;10.808;2023-07-30T00:52:30;97846.81;;;18.11;100.00
64078;BME280;51039;49.696;10.808;2023-07-30T00:54:56;97842.50;;;18.10;100.00
64078;BME280;51039;49.696;10.808;2023-07-30T00:57:23;97844.63;;;18.08;100.00
64078;BME280;51039;49.696;10.808;2023-07-30T00:59:49;97840.63;;;18.05;100.00
64078;BME280;51039;49.696;10.808;2023-07-30T01:02:15;97842.75;;;18.03;100.00
64078;BME280;51039;49.696;10.808;2023-07-30T01:04:41;97842.47;;;18.00;100.00
64078;BME280;51039;49.696;10.808;2023-07-30T01:07:07;97846.50;;;18.02;100.00
64078;BME280;51039;49.696;10.808;2023-07-30T01:09:33;97836.56;;;18.03;100.00
64078;BME280;51039;49.696;10.808;2023-07-30T01:11:58;97835.25;;;18.05;100.00
64078;BME280;51039;49.696;10.808;2023-07-30T01:14:26;97839.78;;;18.05;100.00
64078;BME280;51039;49.696;10.808;2023-07-30T01:16:51;97834.97;;;18.02;100.00
64078;BME280;51039;49.696;10.808;2023-07-30T01:19:17;97847.56;;;18.07;100.00
64078;BME280;51039;49.696;10.808;2023-07-30T01:21:43;97843.56;;;18.04;100.00
64078;BME280;51039;49.696;10.808;2023-07-30T01:24:08;97848.13;;;18.03;100.00
64078;BME280;51039;49.696;10.808;2023-07-30T01:26:38;97847.56;;;18.07;100.00
64078;BME280;51039;49.696;10.808;2023-07-30T01:29:10;97848.13;;;18.03;100.00
64078;BME280;51039;49.696;10.808;2023-07-30T01:31:39;97852.66;;;18.03;100.00
64078;BME280;51039;49.696;10.808;2023-07-30T01:34:06;97860.16;;;18.01;100.00
64078;BME280;51039;49.696;10.808;2023-07-30T01:36:34;97864.16;;;17.93;100.00
64078;BME280;51039;49.696;10.808;2023-07-30T01:39:00;97862.56;;;17.92;100.00
64078;BME280;51039;49.696;10.808;2023-07-30T01:41:26;97857.44;;;17.91;100.00
64078;BME280;51039;49.696;10.808;2023-07-30T01:43:53;97865.75;;;17.89;100.00
64078;BME280;51039;49.696;10.808;2023-07-30T01:46:19;97862.53;;;17.87;100.00
64078;BME280;51039;49.696;10.808;2023-07-30T01:48:44;97856.63;;;17.85;100.00
64078;BME280;51039;49.696;10.808;2023-07-30T01:51:09;97851.75;;;17.82;100.00
64078;BME280;51039;49.696;10.808;2023-07-30T01:53:35;97853.88;;;17.80;100.00
64078;BME280;51039;49.696;10.808;2023-07-30T01:56:00;97852.28;;;17.79;100.00
64078;BME280;51039;49.696;10.808;2023-07-30T01:58:25;97846.38;;;17.77;100.00
64078;BME280;51039;49.696;10.808;2023-07-30T02:00:50;97846.66;;;17.75;100.00
64078;BME280;51039;49.696;10.808;2023-07-30T02:03:16;97843.41;;;17.73;100.00
64078;BME280;51039;49.696;10.808;2023-07-30T02:05:41;97852.50;;;17.72;100.00
64078;BME280;51039;49.696;10.808;2023-07-30T02:08:06;97840.72;;;17.68;100.00
64078;BME280;51039;49.696;10.808;2023-07-30T02:10:32;97854.34;;;17.66;100.00
64078;BME280;51039;49.696;10.808;2023-07-30T02:12:58;97849.28;;;17.65;100.00
64078;BME280;51039;49.696;10.808;2023-07-30T02:15:23;97850.09;;;17.65;100.00
64078;BME280;51039;49.696;10.808;2023-07-30T02:17:48;97847.16;;;17.72;100.00
64078;BME280;51039;49.696;10.808;2023-07-30T02:20:14;97844.75;;;17.71;100.00
64078;BME280;51039;49.696;10.808;2023-07-30T02:22:39;97847.94;;;17.67;100.00
64078;BME280;51039;49.696;10.808;2023-07-30T02:25:04;97851.69;;;17.66;100.00
64078;BME280;51039;49.696;10.808;2023-07-30T02:27:30;97859.47;;;17.68;100.00
64078;BME280;51039;49.696;10.808;2023-07-30T02:29:55;97855.69;;;17.64;100.00
64078;BME280;51039;49.696;10.808;2023-07-30T02:32:21;97858.63;;;17.62;100.00
64078;BME280;51039;49.696;10.808;2023-07-30T02:34:46;97851.69;;;17.61;100.00
64078;BME280;51039;49.696;10.808;2023-07-30T02:37:12;97846.03;;;17.58;100.00
64078;BME280;51039;49.696;10.808;2023-07-30T02:39:39;97855.94;;;17.57;100.00
64078;BME280;51039;49.696;10.808;2023-07-30T02:42:04;97851.09;;;17.54;100.00
64078;BME280;51039;49.696;10.808;2023-07-30T02:44:30;97863.41;;;17.50;100.00
64078;BME280;51039;49.696;10.808;2023-07-30T02:46:55;97860.19;;;17.53;100.00
64078;BME280;51039;49.696;10.808;2023-07-30T02:49:20;97863.94;;;17.52;100.00
64078;BME280;51039;49.696;10.808;2023-07-30T02:51:46;97862.06;;;17.53;100.00
64078;BME280;51039;49.696;10.808;2023-07-30T02:54:13;97863.16;;;17.52;100.00
64078;BME280;51039;49.696;10.808;2023-07-30T02:56:41;97871.44;;;17.50;100.00
64078;BME280;51039;49.696;10.808;2023-07-30T02:59:06;97867.13;;;17.49;100.00
64078;BME280;51039;49.696;10.808;2023-07-30T03:01:32;97873.03;;;17.46;100.00
64078;BME280;51039;49.696;10.808;2023-07-30T03:03:57;97875.41;;;17.42;100.00
64078;BME280;51039;49.696;10.808;2023-07-30T03:06:22;97868.13;;;17.38;100.00
64078;BME280;51039;49.696;10.808;2023-07-30T03:08:48;97872.94;;;17.36;100.00
64078;BME280;51039;49.696;10.808;2023-07-30T03:11:13;97873.47;;;17.33;100.00
64078;BME280;51039;49.696;10.808;2023-07-30T03:13:38;97873.72;;;17.31;100.00
64078;BME280;51039;49.696;10.808;2023-07-30T03:16:04;97867.56;;;17.31;100.00
64078;BME280;51039;49.696;10.808;2023-07-30T03:18:29;97872.94;;;17.31;100.00
64078;BME280;51039;49.696;10.808;2023-07-30T03:20:59;97876.91;;;17.28;100.00
64078;BME280;51039;49.696;10.808;2023-07-30T03:23:25;97879.31;;;17.24;100.00
64078;BME280;51039;49.696;10.808;2023-07-30T03:25:51;97876.91;;;17.23;100.00
64078;BME280;51039;49.696;10.808;2023-07-30T03:28:16;97880.31;;;17.18;100.00
64078;BME280;51039;49.696;10.808;2023-07-30T03:30:41;97882.75;;;17.20;100.00
64078;BME280;51039;49.696;10.808;2023-07-30T03:33:07;97889.72;;;17.21;100.00
64078;BME280;51039;49.696;10.808;2023-07-30T03:35:32;97888.91;;;17.20;100.00
64078;BME280;51039;49.696;10.808;2023-07-30T03:37:57;97895.34;;;17.19;100.00
64078;BME280;51039;49.696;10.808;2023-07-30T03:40:23;97898.00;;;17.19;100.00
64078;BME280;51039;49.696;10.808;2023-07-30T03:42:49;97896.94;;;17.20;100.00
64078;BME280;51039;49.696;10.808;2023-07-30T03:45:14;97896.19;;;17.25;100.00
64078;BME280;51039;49.696;10.808;2023-07-30T03:47:39;97895.66;;;17.28;100.00
64078;BME280;51039;49.696;10.808;2023-07-30T03:50:05;97892.72;;;17.30;100.00
64078;BME280;51039;49.696;10.808;2023-07-30T03:52:30;97900.19;;;17.27;100.00
64078;BME280;51039;49.696;10.808;2023-07-30T03:54:56;97902.88;;;17.27;100.00
64078;BME280;51039;49.696;10.808;2023-07-30T03:57:21;97888.16;;;17.30;100.00
64078;BME280;51039;49.696;10.808;2023-07-30T03:59:47;97894.34;;;17.36;100.00
64078;BME280;51039;49.696;10.808;2023-07-30T04:02:12;97898.16;;;17.40;100.00
64078;BME280;51039;49.696;10.808;2023-07-30T04:04:40;97904.84;;;17.42;100.00
64078;BME280;51039;49.696;10.808;2023-07-30T04:07:06;97906.44;;;17.43;100.00
64078;BME280;51039;49.696;10.808;2023-07-30T04:09:31;97906.19;;;17.45;100.00
64078;BME280;51039;49.696;10.808;2023-07-30T04:11:56;97911.31;;;17.46;100.00
64078;BME280;51039;49.696;10.808;2023-07-30T04:14:22;97909.16;;;17.49;100.00
64078;BME280;51039;49.696;10.808;2023-07-30T04:16:47;97913.72;;;17.48;100.00
64078;BME280;51039;49.696;10.808;2023-07-30T04:19:12;97912.66;;;17.49;100.00
64078;BME280;51039;49.696;10.808;2023-07-30T04:21:38;97909.72;;;17.51;100.00
64078;BME280;51039;49.696;10.808;2023-07-30T04:24:04;97909.22;;;17.54;100.00
64078;BME280;51039;49.696;10.808;2023-07-30T04:26:29;97905.44;;;17.55;100.00
64078;BME280;51039;49.696;10.808;2023-07-30T04:28:55;97916.47;;;17.58;100.00
64078;BME280;51039;49.696;10.808;2023-07-30T04:31:20;97910.31;;;17.58;100.00
64078;BME280;51039;49.696;10.808;2023-07-30T04:33:45;97912.78;;;17.70;100.00
64078;BME280;51039;49.696;10.808;2023-07-30T04:36:10;97910.22;;;17.85;100.00
64078;BME280;51039;49.696;10.808;2023-07-30T04:38:36;97911.31;;;17.94;100.00
64078;BME280;51039;49.696;10.808;2023-07-30T04:41:01;97912.97;;;18.05;100.00
64078;BME280;51039;49.696;10.808;2023-07-30T04:43:26;97914.84;;;18.05;100.00
64078;BME280;51039;49.696;10.808;2023-07-30T04:45:52;97919.41;;;18.04;100.00
64078;BME280;51039;49.696;10.808;2023-07-30T04:48:17;97920.47;;;18.09;100.00
64078;BME280;51039;49.696;10.808;2023-07-30T04:50:43;97916.28;;;18.43;100.00
64078;BME280;51039;49.696;10.808;2023-07-30T04:53:08;97927.88;;;18.54;100.00
64078;BME280;51039;49.696;10.808;2023-07-30T04:55:34;97934.94;;;18.86;100.00
64078;BME280;51039;49.696;10.808;2023-07-30T04:57:59;97931.44;;;18.96;100.00
64078;BME280;51039;49.696;10.808;2023-07-30T05:00:24;97936.53;;;18.97;100.00
64078;BME280;51039;49.696;10.808;2023-07-30T05:02:50;97935.78;;;20.78;100.00
64078;BME280;51039;49.696;10.808;2023-07-30T05:05:15;97926.97;;;22.76;87.79
64078;BME280;51039;49.696;10.808;2023-07-30T05:07:41;97941.34;;;24.03;79.84
64078;BME280;51039;49.696;10.808;2023-07-30T05:10:06;97943.81;;;24.55;74.90
64078;BME280;51039;49.696;10.808;2023-07-30T05:12:35;97946.03;;;24.53;73.71
64078;BME280;51039;49.696;10.808;2023-07-30T05:15:00;97949.47;;;25.49;69.96
64078;BME280;51039;49.696;10.808;2023-07-30T05:17:25;97949.06;;;24.23;74.46
64078;BME280;51039;49.696;10.808;2023-07-30T05:19:51;97955.22;;;22.84;81.28
64078;BME280;51039;49.696;10.808;2023-07-30T05:22:16;97957.41;;;22.20;86.48
64078;BME280;51039;49.696;10.808;2023-07-30T05:24:41;97954.75;;;21.32;91.19
64078;BME280;51039;49.696;10.808;2023-07-30T05:27:07;97961.63;;;20.74;96.40
64078;BME280;51039;49.696;10.808;2023-07-30T05:29:32;97964.03;;;20.21;99.97
64078;BME280;51039;49.696;10.808;2023-07-30T05:31:57;97959.88;;;19.58;100.00
64078;BME280;51039;49.696;10.808;2023-07-30T05:34:23;97966.59;;;19.35;100.00
64078;BME280;51039;49.696;10.808;2023-07-30T05:36:48;97959.09;;;19.22;100.00
64078;BME280;51039;49.696;10.808;2023-07-30T05:39:13;97967.41;;;19.20;100.00
64078;BME280;51039;49.696;10.808;2023-07-30T05:41:39;97965.81;;;19.30;100.00
64078;BME280;51039;49.696;10.808;2023-07-30T05:44:04;97963.13;;;19.25;100.00
64078;BME280;51039;49.696;10.808;2023-07-30T05:46:29;97971.44;;;19.13;100.00
64078;BME280;51039;49.696;10.808;2023-07-30T05:48:55;97963.94;;;19.35;100.00
64078;BME280;51039;49.696;10.808;2023-07-30T05:51:20;97979.41;;;20.15;100.00
64078;BME280;51039;49.696;10.808;2023-07-30T05:53:45;97971.41;;;21.05;95.82
64078;BME280;51039;49.696;10.808;2023-07-30T05:56:11;97978.22;;;21.26;93.69
64078;BME280;51039;49.696;10.808;2023-07-30T05:58:38;97975.94;;;21.09;93.65
64078;BME280;51039;49.696;10.808;2023-07-30T06:01:03;97974.06;;;21.10;92.71
64078;BME280;51039;49.696;10.808;2023-07-30T06:03:29;97968.53;;;20.91;94.15
64078;BME280;51039;49.696;10.808;2023-07-30T06:05:54;97976.72;;;20.70;95.16
64078;BME280;51039;49.696;10.808;2023-07-30T06:08:19;97985.50;;;20.36;97.48
64078;BME280;51039;49.696;10.808;2023-07-30T06:10:45;97989.84;;;20.22;98.84
64078;BME280;51039;49.696;10.808;2023-07-30T06:13:11;97996.31;;;20.21;97.90
64078;BME280;51039;49.696;10.808;2023-07-30T06:15:37;97999.53;;;20.18;99.02
64078;BME280;51039;49.696;10.808;2023-07-30T06:18:02;98002.53;;;20.01;99.37
64078;BME280;51039;49.696;10.808;2023-07-30T06:20:28;98007.13;;;20.00;100.00
64078;BME280;51039;49.696;10.808;2023-07-30T06:22:54;98011.72;;;19.85;100.00
64078;BME280;51039;49.696;10.808;2023-07-30T06:25:19;98006.84;;;19.92;99.65
64078;BME280;51039;49.696;10.808;2023-07-30T06:27:45;98006.84;;;20.02;98.76
64078;BME280;51039;49.696;10.808;2023-07-30T06:30:10;98019.75;;;20.05;97.62
64078;BME280;51039;49.696;10.808;2023-07-30T06:32:36;98014.00;;;20.37;96.15
64078;BME280;51039;49.696;10.808;2023-07-30T06:35:01;98006.88;;;20.72;91.62
64078;BME280;51039;49.696;10.808;2023-07-30T06:37:27;97994.31;;;21.71;88.15
64078;BME280;51039;49.696;10.808;2023-07-30T06:39:53;98002.06;;;25.39;69.77
64078;BME280;51039;49.696;10.808;2023-07-30T06:42:18;97995.66;;;26.29;62.26
64078;BME280;51039;49.696;10.808;2023-07-30T06:44:44;98002.50;;;25.63;66.62
64078;BME280;51039;49.696;10.808;2023-07-30T06:47:09;98001.56;;;29.15;55.23
64078;BME280;51039;49.696;10.808;2023-07-30T06:49:34;98004.28;;;31.05;48.15
64078;BME280;51039;49.696;10.808;2023-07-30T06:52:00;98003.06;;;31.03;47.37
64078;BME280;51039;49.696;10.808;2023-07-30T06:54:26;98007.31;;;30.76;47.50
64078;BME280;51039;49.696;10.808;2023-07-30T06:56:53;98008.88;;;32.69;42.43
64078;BME280;51039;49.696;10.808;2023-07-30T06:59:18;98010.72;;;30.23;47.92
64078;BME280;51039;49.696;10.808;2023-07-30T07:01:44;98005.41;;;28.04;52.33
64078;BME280;51039;49.696;10.808;2023-07-30T07:04:09;98011.44;;;26.84;55.95
64078;BME280;51039;49.696;10.808;2023-07-30T07:06:34;98008.19;;;25.08;62.05
64078;BME280;51039;49.696;10.808;2023-07-30T07:09:00;98012.06;;;25.16;62.86
64078;BME280;51039;49.696;10.808;2023-07-30T07:11:25;98006.16;;;24.77;64.09
64078;BME280;51039;49.696;10.808;2023-07-30T07:13:50;98006.66;;;25.61;61.78
64078;BME280;51039;49.696;10.808;2023-07-30T07:16:16;98002.56;;;25.95;59.82
64078;BME280;51039;49.696;10.808;2023-07-30T07:18:41;98010.16;;;26.64;57.01
64078;BME280;51039;49.696;10.808;2023-07-30T07:21:06;97999.44;;;26.19;57.75
64078;BME280;51039;49.696;10.808;2023-07-30T07:23:33;98008.34;;;25.79;59.85
64078;BME280;51039;49.696;10.808;2023-07-30T07:25:58;97998.38;;;25.21;62.07
64078;BME280;51039;49.696;10.808;2023-07-30T07:28:24;98007.06;;;25.77;60.09
64078;BME280;51039;49.696;10.808;2023-07-30T07:30:49;98005.69;;;25.34;60.80
64078;BME280;51039;49.696;10.808;2023-07-30T07:33:15;98006.72;;;25.24;61.52
64078;BME280;51039;49.696;10.808;2023-07-30T07:35:40;98009.16;;;24.48;63.05
64078;BME280;51039;49.696;10.808;2023-07-30T07:38:06;98016.31;;;24.94;63.16
64078;BME280;51039;49.696;10.808;2023-07-30T07:40:35;98016.41;;;24.66;62.89
64078;BME280;51039;49.696;10.808;2023-07-30T07:43:07;98014.28;;;24.63;64.28
64078;BME280;51039;49.696;10.808;2023-07-30T07:45:33;98011.50;;;24.27;66.16
64078;BME280;51039;49.696;10.808;2023-07-30T07:47:59;98004.47;;;24.26;66.95
64078;BME280;51039;49.696;10.808;2023-07-30T07:50:24;98007.69;;;24.28;66.82
64078;BME280;51039;49.696;10.808;2023-07-30T07:52:49;98011.09;;;24.34;67.96
64078;BME280;51039;49.696;10.808;2023-07-30T07:55:16;98000.44;;;24.09;68.70
64078;BME280;51039;49.696;10.808;2023-07-30T07:57:41;98009.25;;;24.01;68.67
64078;BME280;51039;49.696;10.808;2023-07-30T08:00:07;98011.19;;;23.68;70.55
64078;BME280;51039;49.696;10.808;2023-07-30T08:02:33;97999.94;;;23.80;69.78
64078;BME280;51039;49.696;10.808;2023-07-30T08:04:59;98008.19;;;23.69;69.96
64078;BME280;51039;49.696;10.808;2023-07-30T08:07:25;98005.00;;;23.35;72.44
64078;BME280;51039;49.696;10.808;2023-07-30T08:09:50;98018.81;;;23.14;73.17
64078;BME280;51039;49.696;10.808;2023-07-30T08:12:16;98020.34;;;23.20;72.58
64078;BME280;51039;49.696;10.808;2023-07-30T08:14:42;98013.91;;;22.97;72.69
64078;BME280;51039;49.696;10.808;2023-07-30T08:17:07;98013.69;;;22.93;73.80
64078;BME280;51039;49.696;10.808;2023-07-30T08:19:32;98013.88;;;22.59;76.17
64078;BME280;51039;49.696;10.808;2023-07-30T08:21:58;98016.22;;;22.66;74.53
64078;BME280;51039;49.696;10.808;2023-07-30T08:24:23;98024.84;;;22.44;76.28
64078;BME280;51039;49.696;10.808;2023-07-30T08:26:49;98026.16;;;22.89;75.14
64078;BME280;51039;49.696;10.808;2023-07-30T08:29:14;98031.72;;;22.98;74.04
64078;BME280;51039;49.696;10.808;2023-07-30T08:31:40;98039.31;;;23.15;75.25
64078;BME280;51039;49.696;10.808;2023-07-30T08:34:06;98035.16;;;23.23;73.00
64078;BME280;51039;49.696;10.808;2023-07-30T08:36:31;98039.31;;;23.34;71.27
64078;BME280;51039;49.696;10.808;2023-07-30T08:38:57;98041.72;;;23.87;70.19
64078;BME280;51039;49.696;10.808;2023-07-30T08:41:23;98043.78;;;24.37;67.68
64078;BME280;51039;49.696;10.808;2023-07-30T08:43:48;98041.94;;;24.33;66.15
64078;BME280;51039;49.696;10.808;2023-07-30T08:46:14;98025.31;;;24.12;67.46
64078;BME280;51039;49.696;10.808;2023-07-30T08:48:40;98032.38;;;24.54;64.98
64078;BME280;51039;49.696;10.808;2023-07-30T08:51:06;98034.25;;;25.18;63.08
64078;BME280;51039;49.696;10.808;2023-07-30T08:53:31;98030.88;;;24.98;64.22
64078;BME280;51039;49.696;10.808;2023-07-30T08:55:58;98036.66;;;26.18;60.51
64078;BME280;51039;49.696;10.808;2023-07-30T08:58:25;98039.91;;;25.98;60.07
64078;BME280;51039;49.696;10.808;2023-07-30T09:00:53;98032.13;;;26.05;59.92
64078;BME280;51039;49.696;10.808;2023-07-30T09:03:20;98030.38;;;26.09;58.46
64078;BME280;51039;49.696;10.808;2023-07-30T09:05:48;98025.88;;;26.36;57.86
64078;BME280;51039;49.696;10.808;2023-07-30T09:08:14;98030.13;;;26.19;57.42
64078;BME280;51039;49.696;10.808;2023-07-30T09:10:40;98023.69;;;26.15;54.00
64078;BME280;51039;49.696;10.808;2023-07-30T09:13:05;98020.13;;;25.97;54.40
64078;BME280;51039;49.696;10.808;2023-07-30T09:17:58;98019.47;;;26.89;52.72
64078;BME280;51039;49.696;10.808;2023-07-30T09:20:24;98019.34;;;26.37;52.94
64078;BME280;51039;49.696;10.808;2023-07-30T09:22:49;98019.47;;;26.89;52.54
64078;BME280;51039;49.696;10.808;2023-07-30T09:25:17;98023.94;;;26.94;52.71
64078;BME280;51039;49.696;10.808;2023-07-30T09:27:47;98019.91;;;26.82;53.87
64078;BME280;51039;49.696;10.808;2023-07-30T09:30:14;98032.91;;;25.52;58.21
64078;BME280;51039;49.696;10.808;2023-07-30T09:32:50;98028.31;;;25.52;59.04
64078;BME280;51039;49.696;10.808;2023-07-30T09:35:25;98024.47;;;25.31;61.27
64078;BME280;51039;49.696;10.808;2023-07-30T09:38:01;98030.81;;;25.26;60.39
64078;BME280;51039;49.696;10.808;2023-07-30T09:40:31;98030.50;;;24.91;62.00
64078;BME280;51039;49.696;10.808;2023-07-30T09:43:02;98034.28;;;25.04;60.32
64078;BME280;51039;49.696;10.808;2023-07-30T09:45:28;98030.03;;;24.75;61.88
64078;BME280;51039;49.696;10.808;2023-07-30T09:47:54;98030.53;;;24.49;63.58
64078;BME280;51039;49.696;10.808;2023-07-30T09:50:23;98031.16;;;24.60;64.63
64078;BME280;51039;49.696;10.808;2023-07-30T09:52:48;98022.69;;;25.49;59.62
64078;BME280;51039;49.696;10.808;2023-07-30T09:55:15;98020.75;;;25.72;59.69
64078;BME280;51039;49.696;10.808;2023-07-30T09:57:40;98021.28;;;26.05;56.77
64078;BME280;51039;49.696;10.808;2023-07-30T10:00:06;98016.28;;;25.44;58.71
64078;BME280;51039;49.696;10.808;2023-07-30T10:02:37;98016.75;;;25.92;56.92
64078;BME280;51039;49.696;10.808;2023-07-30T10:05:07;98012.09;;;25.38;58.75
64078;BME280;51039;49.696;10.808;2023-07-30T10:07:36;98011.41;;;25.55;59.55
64078;BME280;51039;49.696;10.808;2023-07-30T10:10:06;98021.75;;;25.53;58.14
64078;BME280;51039;49.696;10.808;2023-07-30T10:12:33;98019.97;;;25.26;58.94
64078;BME280;51039;49.696;10.808;2023-07-30T10:15:01;98017.09;;;25.08;61.16
64078;BME280;51039;49.696;10.808;2023-07-30T10:17:27;98020.09;;;24.71;61.35
64078;BME280;51039;49.696;10.808;2023-07-30T10:19:53;98023.31;;;24.45;61.84
64078;BME280;51039;49.696;10.808;2023-07-30T10:22:20;98018.63;;;25.01;59.79
64078;BME280;51039;49.696;10.808;2023-07-30T10:25:00;98016.34;;;25.17;58.95
64078;BME280;51039;49.696;10.808;2023-07-30T10:27:35;98017.44;;;24.93;57.77
64078;BME280;51039;49.696;10.808;2023-07-30T10:30:08;98011.47;;;24.68;58.63
64078;BME280;51039;49.696;10.808;2023-07-30T10:32:42;98019.31;;;24.42;58.99
64078;BME280;51039;49.696;10.808;2023-07-30T10:35:35;98029.09;;;23.83;61.25
64078;BME280;51039;49.696;10.808;2023-07-30T10:40:38;98045.41;;;21.12;80.63
64078;BME280;51039;49.696;10.808;2023-07-30T10:43:13;98043.34;;;21.38;81.88
64078;BME280;51039;49.696;10.808;2023-07-30T10:45:48;98039.38;;;22.48;77.51
64078;BME280;51039;49.696;10.808;2023-07-30T10:48:14;98040.22;;;23.62;71.28
64078;BME280;51039;49.696;10.808;2023-07-30T10:50:39;98032.16;;;24.37;67.85
64078;BME280;51039;49.696;10.808;2023-07-30T10:53:07;98040.03;;;25.25;65.54
64078;BME280;51039;49.696;10.808;2023-07-30T10:55:33;98036.13;;;24.95;64.08
64078;BME280;51039;49.696;10.808;2023-07-30T10:57:59;98035.88;;;25.05;62.00
64078;BME280;51039;49.696;10.808;2023-07-30T11:00:24;98037.69;;;24.96;60.84
64078;BME280;51039;49.696;10.808;2023-07-30T11:02:54;98050.28;;;24.78;61.59
64078;BME280;51039;49.696;10.808;2023-07-30T11:05:19;98036.75;;;24.78;61.98
64078;BME280;51039;49.696;10.808;2023-07-30T11:07:51;98036.84;;;24.45;63.84
64078;BME280;51039;49.696;10.808;2023-07-30T11:10:17;98040.34;;;24.45;64.01
64078;BME280;51039;49.696;10.808;2023-07-30T11:12:43;98039.03;;;24.15;64.62
64078;BME280;51039;49.696;10.808;2023-07-30T11:15:08;98053.69;;;24.14;63.32
64078;BME280;51039;49.696;10.808;2023-07-30T11:17:34;98042.22;;;23.89;64.10
64078;BME280;51039;49.696;10.808;2023-07-30T11:20:00;98041.63;;;23.60;62.61
64078;BME280;51039;49.696;10.808;2023-07-30T11:22:29;98051.03;;;23.81;65.21
64078;BME280;51039;49.696;10.808;2023-07-30T11:24:56;98050.06;;;23.72;65.14
64078;BME280;51039;49.696;10.808;2023-07-30T11:27:22;98039.16;;;23.44;64.74
64078;BME280;51039;49.696;10.808;2023-07-30T11:29:56;98043.94;;;23.66;65.42
64078;BME280;51039;49.696;10.808;2023-07-30T11:32:22;98037.22;;;23.64;63.25
64078;BME280;51039;49.696;10.808;2023-07-30T11:34:51;98038.94;;;23.74;66.52
64078;BME280;51039;49.696;10.808;2023-07-30T11:37:19;98034.28;;;23.79;66.68
64078;BME280;51039;49.696;10.808;2023-07-30T11:39:46;98038.75;;;24.30;65.34
64078;BME280;51039;49.696;10.808;2023-07-30T11:42:11;98032.03;;;24.14;65.55
64078;BME280;51039;49.696;10.808;2023-07-30T11:44:38;98033.31;;;24.86;63.77
64078;BME280;51039;49.696;10.808;2023-07-30T11:47:04;98018.88;;;25.27;60.16
64078;BME280;51039;49.696;10.808;2023-07-30T11:49:30;98009.97;;;25.13;59.06
64078;BME280;51039;49.696;10.808;2023-07-30T11:52:08;98011.19;;;25.74;58.99
64078;BME280;51039;49.696;10.808;2023-07-30T11:54:35;98006.69;;;26.32;56.64
64078;BME280;51039;49.696;10.808;2023-07-30T11:57:01;98010.22;;;25.93;56.53
64078;BME280;51039;49.696;10.808;2023-07-30T11:59:26;98011.78;;;25.62;55.89
64078;BME280;51039;49.696;10.808;2023-07-30T12:01:51;98001.66;;;26.08;55.13
64078;BME280;51039;49.696;10.808;2023-07-30T12:04:17;98003.88;;;26.06;52.97
64078;BME280;51039;49.696;10.808;2023-07-30T12:06:43;98004.91;;;26.28;52.84
64078;BME280;51039;49.696;10.808;2023-07-30T12:09:17;98004.69;;;26.15;50.18
64078;BME280;51039;49.696;10.808;2023-07-30T12:14:27;98006.59;;;26.06;48.52
64078;BME280;51039;49.696;10.808;2023-07-30T12:16:58;98013.63;;;26.07;48.56
64078;BME280;51039;49.696;10.808;2023-07-30T12:19:26;98004.50;;;25.72;46.86
64078;BME280;51039;49.696;10.808;2023-07-30T12:21:52;97992.88;;;25.80;47.36
64078;BME280;51039;49.696;10.808;2023-07-30T12:24:17;98001.47;;;26.04;46.78
64078;BME280;51039;49.696;10.808;2023-07-30T12:26:42;98003.25;;;25.55;47.63
64078;BME280;51039;49.696;10.808;2023-07-30T12:29:08;97993.88;;;25.61;47.72
64078;BME280;51039;49.696;10.808;2023-07-30T12:31:33;97999.72;;;25.77;48.05
64078;BME280;51039;49.696;10.808;2023-07-30T12:33:58;98002.56;;;25.95;47.48
64078;BME280;51039;49.696;10.808;2023-07-30T12:36:24;97997.81;;;25.78;49.33
64078;BME280;51039;49.696;10.808;2023-07-30T12:38:49;97990.66;;;25.51;47.22
64078;BME280;51039;49.696;10.808;2023-07-30T12:41:17;97997.34;;;24.94;48.70
64078;BME280;51039;49.696;10.808;2023-07-30T12:43:43;98007.94;;;24.82;50.18
64078;BME280;51039;49.696;10.808;2023-07-30T12:46:09;98001.13;;;25.07;50.36
64078;BME280;51039;49.696;10.808;2023-07-30T12:48:34;98006.59;;;24.93;51.06